Kenefic, Oklahoma
Current Conditions -  °F | °C
As of 12:15 PM on Friday 24 Oct 2014 (Local Time) from KDUA Reporting Station
Clear Clear  
Wind Chill: 73°   Ceiling: Unl
Heat Index: 73°   Visibility: 10mi
Dew Point: 61°   Wind: 8mph
Humidity: 65%   Direction: 200°SSW
Pressure: 30.15"   Gusts: NA
Location:  34.15°N, 96.36°W
Report Text: KDUA 241715Z AUTO 20007KT 10SM CLR 23/16 A3015 RMK AO2
Loading
Personal Weather Stations






























Interactive Weather Map
Tropical Storm Tracking
New forecast layout! Learn more

10-Day Weather Forecast

Advertisements
Track Severe Weather on mobile